createdAt,value
2019-02-15T00:00:58.085Z,90.50
2019-02-15T00:03:27.469Z,90.50
2019-02-15T00:05:56.721Z,90.40
2019-02-15T00:08:25.978Z,90.40
2019-02-15T00:10:55.336Z,90.50
2019-02-15T00:13:24.672Z,90.40
2019-02-15T00:15:54.050Z,90.40
2019-02-15T00:18:30.470Z,90.40
2019-02-15T00:21:04.880Z,90.40
2019-02-15T00:23:34.168Z,90.30
2019-02-15T00:26:03.468Z,90.30
2019-02-15T00:28:32.789Z,90.30
2019-02-15T00:31:02.129Z,90.20
2019-02-15T00:33:31.448Z,90.20
2019-02-15T00:36:00.806Z,90.20
2019-02-15T00:38:30.058Z,90.20
2019-02-15T00:40:59.331Z,90.20
2019-02-15T00:43:28.616Z,90.20
2019-02-15T00:46:05.720Z,90.10
2019-02-15T00:48:34.976Z,90.10
2019-02-15T00:51:14.972Z,90.10
2019-02-15T00:53:52.677Z,90.00
2019-02-15T00:56:34.356Z,90.00
2019-02-15T00:59:22.688Z,90.00
2019-02-15T01:02:29.419Z,89.90
2019-02-15T01:05:23.797Z,90.00
2019-02-15T01:08:11.101Z,90.00
2019-02-15T01:11:08.535Z,90.00
2019-02-15T01:13:38.431Z,90.00
2019-02-15T01:16:07.802Z,90.00
2019-02-15T01:18:37.095Z,90.00
2019-02-15T01:21:06.355Z,90.10
2019-02-15T01:23:35.651Z,90.10
2019-02-15T01:26:12.591Z,90.10
2019-02-15T01:28:54.039Z,90.10
2019-02-15T01:31:42.432Z,90.10
2019-02-15T01:34:30.899Z,90.10
2019-02-15T01:37:18.135Z,90.20
2019-02-15T01:40:13.164Z,90.20
2019-02-15T01:43:01.507Z,90.20
2019-02-15T01:45:34.507Z,90.20
2019-02-15T01:48:03.857Z,90.20
2019-02-15T01:50:33.146Z,90.20
2019-02-15T01:53:02.451Z,90.20
2019-02-15T01:55:31.742Z,90.30
2019-02-15T01:58:00.975Z,90.30
2019-02-15T02:00:33.079Z,90.30
2019-02-15T02:03:02.323Z,90.30
2019-02-15T02:05:31.640Z,90.30
2019-02-15T02:08:00.982Z,90.30
2019-02-15T02:10:30.362Z,90.30
2019-02-15T02:12:59.682Z,90.30
2019-02-15T02:15:28.970Z,90.30
2019-02-15T02:17:58.230Z,90.30
2019-02-15T02:20:27.530Z,90.30
2019-02-15T02:22:56.830Z,90.30
2019-02-15T02:25:26.162Z,90.30
2019-02-15T02:27:55.474Z,90.30
2019-02-15T02:30:24.815Z,90.30
2019-02-15T02:32:54.279Z,90.30
2019-02-15T02:35:23.535Z,90.30
2019-02-15T02:37:52.819Z,90.30
2019-02-15T02:40:22.066Z,90.30
2019-02-15T02:42:51.399Z,90.30
2019-02-15T02:45:20.687Z,90.20
2019-02-15T02:47:50.054Z,90.20
2019-02-15T02:50:19.394Z,90.20
2019-02-15T02:52:48.822Z,90.10
2019-02-15T02:55:18.082Z,90.10
2019-02-15T02:57:47.669Z,90.20
2019-02-15T03:00:16.954Z,90.00
2019-02-15T03:02:46.270Z,90.10
2019-02-15T03:05:15.634Z,90.10
2019-02-15T03:07:44.931Z,90.10
2019-02-15T03:10:14.250Z,90.10
2019-02-15T03:12:43.595Z,90.00
2019-02-15T03:15:12.955Z,90.00
2019-02-15T03:17:42.192Z,90.00
2019-02-15T03:20:11.486Z,89.70
2019-02-15T03:22:40.771Z,89.50
2019-02-15T03:25:10.100Z,89.30
2019-02-15T03:27:39.418Z,89.40
2019-02-15T03:30:09.333Z,90.00
2019-02-15T03:32:38.642Z,89.60
2019-02-15T03:35:08.523Z,89.50
2019-02-15T03:38:02.639Z,89.60
2019-02-15T03:40:41.631Z,89.50
2019-02-15T03:43:11.017Z,89.60
2019-02-15T03:45:40.266Z,89.30
2019-02-15T03:48:09.625Z,89.20
2019-02-15T03:50:38.939Z,89.40
2019-02-15T03:53:08.349Z,89.40
2019-02-15T03:55:37.605Z,89.30
2019-02-15T03:58:07.676Z,89.20
2019-02-15T04:00:37.005Z,89.20
2019-02-15T04:03:06.278Z,89.20
2019-02-15T04:05:35.909Z,89.20
2019-02-15T04:08:05.377Z,89.10
2019-02-15T04:10:34.668Z,88.30
2019-02-15T04:13:03.912Z,89.00
2019-02-15T04:15:33.356Z,89.00
2019-02-15T04:18:02.731Z,88.90
2019-02-15T04:20:32.113Z,88.90
2019-02-15T04:23:01.371Z,88.80
2019-02-15T04:25:30.853Z,88.80
2019-02-15T04:28:00.152Z,88.80
2019-02-15T04:30:29.432Z,88.70
2019-02-15T04:32:59.680Z,88.70
2019-02-15T04:35:28.985Z,88.60
2019-02-15T04:37:58.266Z,88.80
2019-02-15T04:40:27.581Z,88.80
2019-02-15T04:42:56.948Z,89.00
2019-02-15T04:45:26.233Z,89.30
2019-02-15T04:47:55.471Z,89.50
2019-02-15T04:50:24.776Z,89.90
2019-02-15T04:52:54.031Z,90.10
2019-02-15T04:55:23.327Z,90.30
2019-02-15T04:57:52.692Z,90.40
2019-02-15T05:00:22.091Z,90.40
2019-02-15T05:02:51.399Z,90.40
2019-02-15T05:05:20.756Z,90.30
2019-02-15T05:07:50.087Z,90.30
2019-02-15T05:10:21.199Z,90.40
2019-02-15T05:12:50.471Z,90.40
2019-02-15T05:15:20.213Z,90.30
2019-02-15T05:17:49.466Z,90.20
2019-02-15T05:20:18.723Z,90.30
2019-02-15T05:22:48.095Z,90.30
2019-02-15T05:25:17.511Z,90.30
2019-02-15T05:27:46.841Z,90.20
2019-02-15T05:30:16.161Z,90.20
2019-02-15T05:32:45.454Z,90.10
2019-02-15T05:35:14.818Z,90.10
2019-02-15T05:37:44.173Z,90.10
2019-02-15T05:40:13.536Z,90.10
2019-02-15T05:42:42.803Z,90.00
2019-02-15T05:45:12.091Z,90.00
2019-02-15T05:47:41.490Z,90.00
2019-02-15T05:50:10.827Z,90.00
2019-02-15T05:52:40.210Z,90.00
2019-02-15T05:55:09.670Z,90.00
2019-02-15T05:57:38.950Z,90.00
2019-02-15T06:00:08.961Z,89.90
2019-02-15T06:02:38.295Z,89.90
2019-02-15T06:05:08.210Z,89.90
2019-02-15T06:07:37.514Z,89.80
2019-02-15T06:10:07.306Z,89.80
2019-02-15T06:12:36.630Z,89.80
2019-02-15T06:15:14.746Z,89.70
2019-02-15T06:17:36.935Z,89.60
2019-02-15T06:20:06.466Z,89.60
2019-02-15T06:22:36.247Z,89.50
2019-02-15T06:25:06.220Z,89.50
2019-02-15T06:27:35.861Z,89.40
2019-02-15T06:30:05.875Z,89.50
2019-02-15T06:32:35.218Z,89.40
2019-02-15T06:35:04.878Z,89.40
2019-02-15T06:37:34.165Z,89.50
2019-02-15T06:40:07.186Z,89.40
2019-02-15T06:42:36.898Z,89.60
2019-02-15T06:45:06.870Z,89.60
2019-02-15T06:47:36.519Z,89.50
2019-02-15T06:50:06.437Z,89.50
2019-02-15T06:52:36.355Z,89.50
2019-02-15T06:55:06.309Z,89.40
2019-02-15T06:57:35.861Z,89.40
2019-02-15T07:00:24.702Z,89.40
2019-02-15T07:03:04.961Z,89.50
2019-02-15T07:05:34.275Z,89.50
2019-02-15T07:08:03.554Z,89.40
2019-02-15T07:10:32.838Z,89.40
2019-02-15T07:13:02.611Z,89.30
2019-02-15T07:15:35.681Z,89.30
2019-02-15T07:18:04.965Z,89.30
2019-02-15T07:20:34.217Z,89.40
2019-02-15T07:23:04.510Z,89.30
2019-02-15T07:25:34.417Z,89.30
2019-02-15T07:28:04.157Z,88.80
2019-02-15T07:30:33.878Z,89.20
2019-02-15T07:33:03.593Z,89.10
2019-02-15T07:35:33.210Z,89.00
2019-02-15T07:38:03.062Z,89.10
2019-02-15T07:40:32.950Z,89.00
2019-02-15T07:43:02.625Z,89.00
2019-02-15T07:45:32.061Z,89.00
2019-02-15T07:48:02.329Z,88.90
2019-02-15T07:50:31.601Z,89.00
2019-02-15T07:53:00.979Z,88.90
2019-02-15T07:55:30.724Z,88.80
2019-02-15T07:58:00.025Z,89.70
2019-02-15T08:00:29.272Z,89.00
2019-02-15T08:02:58.660Z,89.00
2019-02-15T08:05:28.089Z,89.00
2019-02-15T08:07:57.384Z,89.00
2019-02-15T08:10:26.984Z,89.00
2019-02-15T08:12:56.362Z,89.00
2019-02-15T08:15:25.648Z,89.00
2019-02-15T08:17:54.936Z,89.10
2019-02-15T08:20:24.197Z,89.00
2019-02-15T08:22:53.496Z,88.90
2019-02-15T08:25:22.852Z,89.00
2019-02-15T08:27:52.209Z,89.00
2019-02-15T08:30:22.123Z,89.00
2019-02-15T08:32:51.808Z,89.00
2019-02-15T08:35:21.106Z,89.80
2019-02-15T08:37:50.387Z,89.00
2019-02-15T08:40:19.672Z,88.90
2019-02-15T08:42:48.952Z,88.90
2019-02-15T08:45:18.259Z,88.90
2019-02-15T08:47:47.648Z,88.90
2019-02-15T08:50:17.180Z,89.00
2019-02-15T08:52:46.607Z,89.00
2019-02-15T08:55:15.900Z,89.00
2019-02-15T08:57:45.164Z,89.10
2019-02-15T09:00:14.535Z,89.10
2019-02-15T09:02:43.903Z,89.10
2019-02-15T09:05:13.177Z,89.00
2019-02-15T09:07:42.598Z,89.10
2019-02-15T09:10:12.467Z,89.00
2019-02-15T09:12:41.739Z,89.10
2019-02-15T09:15:13.922Z,89.10
2019-02-15T09:17:43.247Z,89.20
2019-02-15T09:20:12.858Z,89.10
2019-02-15T09:22:42.191Z,89.20
2019-02-15T09:25:11.550Z,89.30
2019-02-15T09:28:08.909Z,89.20
2019-02-15T09:30:38.295Z,89.30
2019-02-15T09:33:07.583Z,89.40
2019-02-15T09:35:36.839Z,89.30
2019-02-15T09:38:06.075Z,89.30
2019-02-15T09:40:35.369Z,89.40
2019-02-15T09:43:04.618Z,89.40
2019-02-15T09:45:34.059Z,89.40
2019-02-15T09:48:03.319Z,89.30
2019-02-15T09:50:32.678Z,89.40
2019-02-15T09:53:01.914Z,89.30
2019-02-15T09:55:31.286Z,89.20
2019-02-15T09:58:00.566Z,89.30
2019-02-15T10:00:29.886Z,89.30
2019-02-15T10:02:59.138Z,89.20
2019-02-15T10:05:28.790Z,89.20
2019-02-15T10:07:58.036Z,89.10
2019-02-15T10:10:27.602Z,89.00
2019-02-15T10:12:56.872Z,89.10
2019-02-15T10:15:26.243Z,89.00
2019-02-15T10:17:55.542Z,89.00
2019-02-15T10:20:24.865Z,88.90
2019-02-15T10:22:54.202Z,89.00
2019-02-15T10:25:23.548Z,89.00
2019-02-15T10:27:52.892Z,88.80
2019-02-15T10:30:22.198Z,88.90
2019-02-15T10:32:51.440Z,88.80
2019-02-15T10:35:20.789Z,88.80
2019-02-15T10:37:50.134Z,89.20
2019-02-15T10:40:19.411Z,88.80
2019-02-15T10:42:48.806Z,88.70
2019-02-15T10:45:18.064Z,88.60
2019-02-15T10:47:47.271Z,88.50
2019-02-15T10:50:16.629Z,88.50
2019-02-15T10:52:45.906Z,88.40
2019-02-15T10:55:15.187Z,88.30
2019-02-15T10:57:44.477Z,88.20
2019-02-15T11:00:18.206Z,88.20
2019-02-15T11:02:48.105Z,88.20
2019-02-15T11:05:18.110Z,88.30
2019-02-15T11:07:47.374Z,88.10
2019-02-15T11:10:16.687Z,88.30
2019-02-15T11:12:45.958Z,88.30
2019-02-15T11:15:15.269Z,88.20
2019-02-15T11:17:44.513Z,88.00
2019-02-15T11:20:14.260Z,88.10
2019-02-15T11:22:43.495Z,88.10
2019-02-15T11:25:12.860Z,88.00
2019-02-15T11:27:42.141Z,88.10
2019-02-15T11:30:12.845Z,88.20
2019-02-15T11:32:42.173Z,88.30
2019-02-15T11:35:12.209Z,88.20
2019-02-15T11:37:41.577Z,88.30
2019-02-15T11:40:12.178Z,88.20
2019-02-15T11:42:41.469Z,88.00
2019-02-15T11:45:11.386Z,88.00
2019-02-15T11:47:40.665Z,87.90
2019-02-15T11:50:11.394Z,87.90
2019-02-15T11:52:40.778Z,88.00
2019-02-15T11:55:10.191Z,87.90
2019-02-15T11:57:39.470Z,87.80
2019-02-15T12:00:14.382Z,87.80
2019-02-15T12:02:42.572Z,87.70
2019-02-15T12:05:11.900Z,87.70
2019-02-15T12:07:41.136Z,87.50
2019-02-15T12:10:10.431Z,87.70
2019-02-15T12:12:39.808Z,87.80
2019-02-15T12:15:09.073Z,87.70
2019-02-15T12:17:38.317Z,87.60
2019-02-15T12:20:08.669Z,87.50
2019-02-15T12:22:37.969Z,87.40
2019-02-15T12:25:07.428Z,87.40
2019-02-15T12:27:36.684Z,87.40
2019-02-15T12:30:06.804Z,87.40
2019-02-15T12:32:36.168Z,87.30
2019-02-15T12:35:05.528Z,87.40
2019-02-15T12:37:34.813Z,87.40
2019-02-15T12:40:04.188Z,87.30
2019-02-15T12:42:33.488Z,87.40
2019-02-15T12:45:02.767Z,87.40
2019-02-15T12:47:32.038Z,87.30
2019-02-15T12:50:01.345Z,87.30
2019-02-15T12:52:30.684Z,87.20
2019-02-15T12:54:59.932Z,87.10
2019-02-15T12:57:29.291Z,87.00
2019-02-15T12:59:58.622Z,86.90
2019-02-15T13:02:27.875Z,86.80
2019-02-15T13:04:57.379Z,86.80
2019-02-15T13:07:26.770Z,86.90
2019-02-15T13:09:56.002Z,86.90
2019-02-15T13:12:25.190Z,86.90
2019-02-15T13:14:54.479Z,86.80
2019-02-15T13:17:25.073Z,86.80
2019-02-15T13:19:54.636Z,86.70
2019-02-15T13:22:23.888Z,86.70
2019-02-15T13:24:53.198Z,86.70
2019-02-15T13:27:22.519Z,86.70
2019-02-15T13:29:51.791Z,86.60
2019-02-15T13:32:21.155Z,86.60
2019-02-15T13:34:50.411Z,87.30
2019-02-15T13:37:19.649Z,86.60
2019-02-15T13:39:49.071Z,86.50
2019-02-15T13:42:18.297Z,86.40
2019-02-15T13:44:47.950Z,86.50
2019-02-15T13:47:17.267Z,86.60
2019-02-15T13:49:46.547Z,86.50
2019-02-15T13:52:15.867Z,86.50
2019-02-15T13:54:45.177Z,86.50
2019-02-15T13:57:14.543Z,86.60
2019-02-15T13:59:44.144Z,86.50
2019-02-15T14:02:13.797Z,86.60
2019-02-15T14:04:43.130Z,86.60
2019-02-15T14:07:19.851Z,86.60
2019-02-15T14:09:49.106Z,86.70
2019-02-15T14:12:18.692Z,86.70
2019-02-15T14:14:48.040Z,86.60
2019-02-15T14:17:17.310Z,87.50
2019-02-15T14:19:46.587Z,86.70
2019-02-15T14:22:15.889Z,86.70
2019-02-15T14:24:45.118Z,86.80
2019-02-15T14:27:14.417Z,86.80
2019-02-15T14:29:43.714Z,86.90
2019-02-15T14:32:13.074Z,86.90
2019-02-15T14:34:42.450Z,87.00
2019-02-15T14:37:11.738Z,87.00
2019-02-15T14:39:41.070Z,87.10
2019-02-15T14:42:10.386Z,87.10
2019-02-15T14:44:39.717Z,87.10
2019-02-15T14:47:09.065Z,87.20
2019-02-15T14:49:38.514Z,87.30
2019-02-15T14:52:07.746Z,87.20
2019-02-15T14:54:37.006Z,87.30
2019-02-15T14:57:06.509Z,87.50
2019-02-15T14:59:35.798Z,87.40
2019-02-15T15:02:06.936Z,87.50
2019-02-15T15:04:36.379Z,87.60
2019-02-15T15:07:05.679Z,87.60
2019-02-15T15:09:35.013Z,87.70
2019-02-15T15:12:04.375Z,87.70
2019-02-15T15:14:33.741Z,88.00
2019-02-15T15:17:03.238Z,87.70
2019-02-15T15:19:32.575Z,87.80
2019-02-15T15:22:01.941Z,88.00
2019-02-15T15:24:31.508Z,87.90
2019-02-15T15:27:00.877Z,88.10
2019-02-15T15:29:30.182Z,88.20
2019-02-15T15:31:59.477Z,88.20
2019-02-15T15:34:28.717Z,88.30
2019-02-15T15:36:58.081Z,89.10
2019-02-15T15:39:27.380Z,88.30
2019-02-15T15:41:57.630Z,88.40
2019-02-15T15:44:27.042Z,88.50
2019-02-15T15:46:56.281Z,88.60
2019-02-15T15:49:25.603Z,88.60
2019-02-15T15:51:54.889Z,88.70
2019-02-15T15:54:24.265Z,88.70
2019-02-15T15:56:53.545Z,89.00
2019-02-15T15:59:22.793Z,88.90
2019-02-15T16:01:52.097Z,89.00
2019-02-15T16:04:21.427Z,89.00
2019-02-15T16:06:50.750Z,89.00
2019-02-15T16:09:20.048Z,89.10
2019-02-15T16:11:49.376Z,89.20
2019-02-15T16:14:18.641Z,89.20
2019-02-15T16:16:48.079Z,89.40
2019-02-15T16:19:17.432Z,89.40
2019-02-15T16:21:46.720Z,89.40
2019-02-15T16:24:15.969Z,89.60
2019-02-15T16:26:45.374Z,89.70
2019-02-15T16:29:14.644Z,89.70
2019-02-15T16:31:44.008Z,89.80
2019-02-15T16:34:13.371Z,89.80
2019-02-15T16:36:42.696Z,89.80
2019-02-15T16:39:12.007Z,89.90
2019-02-15T16:41:41.852Z,90.00
2019-02-15T16:44:11.193Z,90.00
2019-02-15T16:46:40.543Z,90.00
2019-02-15T16:49:09.843Z,90.00
2019-02-15T16:51:39.091Z,90.00
2019-02-15T16:54:10.331Z,90.00
2019-02-15T16:56:39.459Z,90.10
2019-02-15T16:59:08.747Z,90.10
2019-02-15T17:01:38.071Z,90.10
2019-02-15T17:04:07.367Z,90.10
2019-02-15T17:06:36.660Z,90.10
2019-02-15T17:09:13.516Z,90.10
2019-02-15T17:11:42.919Z,90.10
2019-02-15T17:14:12.295Z,90.20
2019-02-15T17:16:41.666Z,90.20
2019-02-15T17:19:10.931Z,90.50
2019-02-15T17:21:41.212Z,90.20
2019-02-15T17:24:10.537Z,90.30
2019-02-15T17:26:39.799Z,90.30
2019-02-15T17:29:09.071Z,90.30
2019-02-15T17:31:38.358Z,90.30
2019-02-15T17:34:07.755Z,90.30
2019-02-15T17:36:37.010Z,90.40
2019-02-15T17:39:06.966Z,90.40
2019-02-15T17:41:36.166Z,90.50
2019-02-15T17:44:05.535Z,90.40
2019-02-15T17:46:36.669Z,90.40
2019-02-15T17:49:05.938Z,90.40
2019-02-15T17:51:35.202Z,90.40
2019-02-15T17:54:04.517Z,90.50
2019-02-15T17:56:33.802Z,90.50
2019-02-15T17:59:03.141Z,90.40
2019-02-15T18:01:33.099Z,90.50
2019-02-15T18:04:02.383Z,90.50
2019-02-15T18:06:31.758Z,90.50
2019-02-15T18:09:01.038Z,90.50
2019-02-15T18:11:30.282Z,90.50
2019-02-15T18:13:59.577Z,90.60
2019-02-15T18:16:28.822Z,90.60
2019-02-15T18:18:58.166Z,90.60
2019-02-15T18:21:27.451Z,90.60
2019-02-15T18:23:56.785Z,90.60
2019-02-15T18:26:26.094Z,90.50
2019-02-15T18:28:55.410Z,90.50
2019-02-15T18:31:24.703Z,90.50
2019-02-15T18:33:54.117Z,90.50
2019-02-15T18:36:23.393Z,90.60
2019-02-15T18:38:52.694Z,90.60
2019-02-15T18:41:21.927Z,90.50
2019-02-15T18:43:51.201Z,90.60
2019-02-15T18:46:20.529Z,90.60
2019-02-15T18:48:49.802Z,90.60
2019-02-15T18:51:19.209Z,90.60
2019-02-15T18:53:48.581Z,90.60
2019-02-15T18:56:17.829Z,90.60
2019-02-15T18:58:47.090Z,90.50
2019-02-15T19:01:16.493Z,90.50
2019-02-15T19:03:45.881Z,90.40
2019-02-15T19:06:15.149Z,90.40
2019-02-15T19:08:44.325Z,90.40
2019-02-15T19:11:13.635Z,90.40
2019-02-15T19:13:42.914Z,90.40
2019-02-15T19:16:12.162Z,90.30
2019-02-15T19:18:41.517Z,90.20
2019-02-15T19:21:10.790Z,90.10
2019-02-15T19:23:40.209Z,90.10
2019-02-15T19:26:09.573Z,90.00
2019-02-15T19:28:38.822Z,90.00
2019-02-15T19:31:08.113Z,90.00
2019-02-15T19:33:37.644Z,89.90
2019-02-15T19:36:07.246Z,89.80
2019-02-15T19:38:36.480Z,89.70
2019-02-15T19:41:05.745Z,89.50
2019-02-15T19:43:35.109Z,89.50
2019-02-15T19:46:04.489Z,89.30
2019-02-15T19:48:33.817Z,89.40
2019-02-15T19:51:03.096Z,89.40
2019-02-15T19:53:32.334Z,89.30
2019-02-15T19:56:01.611Z,89.20
2019-02-15T19:58:30.918Z,89.20
2019-02-15T20:01:00.224Z,89.30
2019-02-15T20:03:29.541Z,89.20
2019-02-15T20:05:58.792Z,89.20
2019-02-15T20:08:28.103Z,89.30
2019-02-15T20:10:57.445Z,89.30
2019-02-15T20:13:26.688Z,89.20
2019-02-15T20:15:56.035Z,89.10
2019-02-15T20:18:25.249Z,89.00
2019-02-15T20:20:54.524Z,88.90
2019-02-15T20:23:23.780Z,88.80
2019-02-15T20:25:53.133Z,88.70
2019-02-15T20:28:22.469Z,89.50
2019-02-15T20:30:51.816Z,88.80
2019-02-15T20:33:21.108Z,88.80
2019-02-15T20:35:50.405Z,88.80
2019-02-15T20:38:19.655Z,88.60
2019-02-15T20:40:49.064Z,88.60
2019-02-15T20:43:18.509Z,88.60
2019-02-15T20:45:48.055Z,88.60
2019-02-15T20:48:17.488Z,88.60
2019-02-15T20:50:46.793Z,88.60
2019-02-15T20:53:16.069Z,88.50
2019-02-15T20:55:45.382Z,88.50
2019-02-15T20:58:14.714Z,88.30
2019-02-15T21:00:44.059Z,88.10
2019-02-15T21:03:13.406Z,88.00
2019-02-15T21:05:42.765Z,88.10
2019-02-15T21:08:12.025Z,88.20
2019-02-15T21:10:41.340Z,88.30
2019-02-15T21:13:19.931Z,88.30
2019-02-15T21:15:41.608Z,88.20
2019-02-15T21:18:10.940Z,88.20
2019-02-15T21:20:40.216Z,88.10
2019-02-15T21:23:09.511Z,88.30
2019-02-15T21:25:38.883Z,88.20
2019-02-15T21:28:08.162Z,88.00
2019-02-15T21:30:37.518Z,88.00
2019-02-15T21:33:06.806Z,88.00
2019-02-15T21:35:36.134Z,87.70
2019-02-15T21:38:05.444Z,87.80
2019-02-15T21:40:34.692Z,87.80
2019-02-15T21:43:04.005Z,88.00
2019-02-15T21:45:33.936Z,88.10
2019-02-15T21:48:03.224Z,88.20
2019-02-15T21:50:32.546Z,88.10
2019-02-15T21:53:01.796Z,88.20
2019-02-15T21:55:31.154Z,88.00
2019-02-15T21:58:01.778Z,88.10
2019-02-15T22:00:31.252Z,88.00
2019-02-15T22:03:00.516Z,88.00
2019-02-15T22:05:29.888Z,88.00
2019-02-15T22:07:59.276Z,87.90
2019-02-15T22:10:28.563Z,87.80
2019-02-15T22:12:57.810Z,87.90
2019-02-15T22:15:27.108Z,87.80
2019-02-15T22:17:56.483Z,87.80
2019-02-15T22:20:26.929Z,87.70
2019-02-15T22:22:56.306Z,87.60
2019-02-15T22:25:25.573Z,87.70
2019-02-15T22:27:54.877Z,87.60
2019-02-15T22:30:24.115Z,87.60
2019-02-15T22:32:53.408Z,87.60
2019-02-15T22:35:22.725Z,87.60
2019-02-15T22:37:51.979Z,87.70
2019-02-15T22:40:38.063Z,87.60
2019-02-15T22:43:13.264Z,87.70
2019-02-15T22:45:42.529Z,87.60
2019-02-15T22:48:11.853Z,87.50
2019-02-15T22:50:41.245Z,87.50
2019-02-15T22:53:10.569Z,87.50
2019-02-15T22:55:39.835Z,87.50
2019-02-15T22:58:09.095Z,87.50
2019-02-15T23:00:47.631Z,87.60
2019-02-15T23:03:18.581Z,87.60
2019-02-15T23:05:47.844Z,87.60
2019-02-15T23:08:17.067Z,87.70
2019-02-15T23:10:46.406Z,87.50
2019-02-15T23:13:15.734Z,87.50
2019-02-15T23:15:45.038Z,87.50
2019-02-15T23:18:14.287Z,87.50
2019-02-15T23:20:45.490Z,87.40
2019-02-15T23:23:15.306Z,87.40
2019-02-15T23:25:44.611Z,87.40
2019-02-15T23:28:13.912Z,87.30
2019-02-15T23:30:43.234Z,87.30
2019-02-15T23:33:12.536Z,87.10
2019-02-15T23:35:41.904Z,87.10
2019-02-15T23:38:11.256Z,87.20
2019-02-15T23:40:40.652Z,87.30
2019-02-15T23:43:10.646Z,87.40
2019-02-15T23:45:39.892Z,87.40
2019-02-15T23:48:09.211Z,87.50
2019-02-15T23:50:39.343Z,87.40
2019-02-15T23:53:08.589Z,87.30
2019-02-15T23:55:37.884Z,87.20
2019-02-15T23:58:07.170Z,87.20
